Time;durP1;ratioP1;P1;durP2;ratioP2;P2;SDS_P1;SDS_P2;PMS_P1;PMS_P2;Temp;Humidity;BMP_temperature;BMP_pressure;BME280_temperature;BME280_humidity;BME280_pressure;Samples;Min_cycle;Max_cycle;Signal;HPM_P1;HPM_P2
2023/02/21 02:16:19;;;;;;;3.22;1.40;;;6.00;99.90;;;;;;5035025;28;20617;-82
2023/02/21 02:18:59;;;;;;;4.10;1.65;;;6.00;99.90;;;;;;5035865;28;20053;-82
2023/02/21 02:21:41;;;;;;;4.22;1.77;;;6.00;99.90;;;;;;5039264;28;20399;-81
2023/02/21 02:24:11;;;;;;;3.55;1.52;;;6.00;99.90;;;;;;5024161;28;20046;-80
2023/02/21 02:27:17;;;;;;;5.20;1.80;;;6.00;99.90;;;;;;5027139;28;20105;-83
2023/02/21 02:30:42;;;;;;;4.05;1.40;;;5.90;99.90;;;;;;5032713;28;20574;-83
2023/02/21 02:33:21;;;;;;;7.10;2.10;;;5.90;99.90;;;;;;4997675;28;20077;-83
2023/02/21 02:35:47;;;;;;;7.47;1.67;;;5.90;99.90;;;;;;5036751;28;20530;-82
2023/02/21 02:38:22;;;;;;;4.13;1.65;;;5.90;99.90;;;;;;5022505;28;20054;-82
2023/02/21 02:41:25;;;;;;;2.45;1.73;;;5.90;99.90;;;;;;5026632;28;20056;-81
2023/02/21 02:44:17;;;;;;;3.92;1.58;;;5.90;99.90;;;;;;5031300;28;20054;-81
2023/02/21 02:46:47;;;;;;;6.55;1.60;;;5.90;99.90;;;;;;5047840;28;20073;-83
2023/02/21 02:49:20;;;;;;;4.28;1.42;;;5.90;99.90;;;;;;5033036;28;20079;-82
2023/02/21 02:51:47;;;;;;;3.95;2.50;;;5.90;99.90;;;;;;5025825;28;20493;-82
2023/02/21 02:54:14;;;;;;;3.10;1.60;;;5.90;99.90;;;;;;5028212;28;20055;-83
2023/02/21 02:56:41;;;;;;;4.47;1.80;;;5.90;99.90;;;;;;5026451;28;20076;-81
2023/02/21 02:59:12;;;;;;;3.97;1.73;;;5.80;99.90;;;;;;5034182;28;20073;-83
2023/02/21 03:01:48;;;;;;;4.82;2.42;;;5.80;99.90;;;;;;5033706;28;20059;-82
2023/02/21 03:04:18;;;;;;;4.50;1.65;;;5.80;99.90;;;;;;5033782;28;20081;-82
2023/02/21 03:07:06;;;;;;;8.98;2.33;;;5.80;99.90;;;;;;5023438;28;20046;-81
2023/02/21 03:10:06;;;;;;;2.97;1.60;;;5.80;99.90;;;;;;5029679;28;20050;-82
2023/02/21 03:12:39;;;;;;;3.72;2.55;;;5.80;99.90;;;;;;5028008;28;20091;-82
2023/02/21 03:15:28;;;;;;;3.63;1.92;;;5.80;99.90;;;;;;5037390;28;20408;-82
2023/02/21 03:18:24;;;;;;;4.18;1.83;;;5.70;99.90;;;;;;5035866;28;20569;-81
2023/02/21 03:20:55;;;;;;;3.42;1.65;;;5.70;99.90;;;;;;5032559;28;20133;-83
2023/02/21 03:23:26;;;;;;;3.50;1.75;;;5.70;99.90;;;;;;5026249;28;20046;-79
2023/02/21 03:25:55;;;;;;;3.10;1.77;;;5.70;99.90;;;;;;5030308;28;20523;-82
2023/02/21 03:28:23;;;;;;;5.97;2.08;;;5.70;99.90;;;;;;5032150;28;20049;-81
2023/02/21 03:30:52;;;;;;;3.85;2.35;;;5.60;99.90;;;;;;5030641;28;20069;-83
2023/02/21 03:33:19;;;;;;;4.15;2.38;;;5.60;99.90;;;;;;5030267;28;20109;-83
2023/02/21 03:35:46;;;;;;;6.90;2.80;;;5.60;99.90;;;;;;5025346;28;20110;-82
2023/02/21 03:38:13;;;;;;;3.95;2.78;;;5.50;99.90;;;;;;5043540;28;20054;-82
2023/02/21 03:40:40;;;;;;;5.53;3.42;;;5.50;99.90;;;;;;5045552;28;20532;-83
2023/02/21 03:43:07;;;;;;;6.40;2.65;;;5.50;99.90;;;;;;5034267;28;20689;-82
2023/02/21 03:45:34;;;;;;;6.68;2.92;;;5.50;99.90;;;;;;5033479;28;20056;-82
2023/02/21 03:48:01;;;;;;;7.43;2.90;;;5.50;99.90;;;;;;5023076;28;20046;-82
2023/02/21 03:50:28;;;;;;;4.78;2.97;;;5.50;99.90;;;;;;5024926;28;20046;-83
2023/02/21 03:52:55;;;;;;;5.22;2.80;;;5.50;99.90;;;;;;5025584;28;20041;-83
2023/02/21 03:55:21;;;;;;;8.35;4.65;;;5.50;99.90;;;;;;5030342;28;20049;-82
2023/02/21 03:57:48;;;;;;;9.27;3.20;;;5.50;99.90;;;;;;5038090;28;20045;-82
2023/02/21 04:00:15;;;;;;;6.97;2.80;;;5.50;99.90;;;;;;5043138;28;20050;-82
2023/02/21 04:02:43;;;;;;;5.15;2.53;;;5.40;99.90;;;;;;5024930;28;20085;-83
2023/02/21 04:05:10;;;;;;;4.72;2.80;;;5.40;99.90;;;;;;5029874;28;20050;-82
2023/02/21 04:07:37;;;;;;;4.85;3.00;;;5.40;99.90;;;;;;5035048;28;20046;-84
2023/02/21 04:10:04;;;;;;;3.58;2.28;;;5.40;99.90;;;;;;5039261;28;20080;-82
2023/02/21 04:12:31;;;;;;;7.38;2.70;;;5.40;99.90;;;;;;5035164;28;20045;-83
2023/02/21 04:14:58;;;;;;;7.70;2.60;;;5.40;99.90;;;;;;5034545;28;20132;-82
2023/02/21 04:17:24;;;;;;;5.18;2.17;;;5.40;99.90;;;;;;5028732;28;20049;-82
2023/02/21 04:19:51;;;;;;;8.18;2.72;;;5.40;99.90;;;;;;5028521;28;20054;-82
2023/02/21 04:22:18;;;;;;;4.03;2.17;;;5.40;99.90;;;;;;5034495;28;20055;-82
2023/02/21 04:24:46;;;;;;;3.45;2.30;;;5.40;99.90;;;;;;5034291;28;20041;-80
2023/02/21 04:27:14;;;;;;;4.75;2.70;;;5.30;99.90;;;;;;5038137;28;20126;-83
2023/02/21 04:29:41;;;;;;;4.63;2.92;;;5.30;99.90;;;;;;5032015;28;20041;-82
2023/02/21 04:32:09;;;;;;;4.57;2.40;;;5.30;99.90;;;;;;5025199;28;20517;-82
2023/02/21 04:34:36;;;;;;;4.60;2.30;;;5.30;99.90;;;;;;5029993;28;20049;-82
2023/02/21 04:37:03;;;;;;;4.53;2.42;;;5.30;99.90;;;;;;5031667;28;20065;-82
2023/02/21 04:39:30;;;;;;;3.28;2.20;;;5.30;99.90;;;;;;5035908;28;20476;-82
2023/02/21 04:41:57;;;;;;;4.65;2.38;;;5.30;99.90;;;;;;5035005;28;20072;-83
2023/02/21 04:44:24;;;;;;;4.10;2.20;;;5.20;99.90;;;;;;5028684;28;20042;-82
2023/02/21 04:46:50;;;;;;;8.00;3.10;;;5.20;99.90;;;;;;5028045;28;20140;-83
2023/02/21 04:49:17;;;;;;;6.18;3.17;;;5.20;99.90;;;;;;5027545;28;20417;-82
2023/02/21 04:51:44;;;;;;;4.75;2.72;;;5.10;99.90;;;;;;5038953;28;20408;-82
2023/02/21 04:54:10;;;;;;;5.03;2.70;;;5.10;99.90;;;;;;5035830;28;20048;-84
2023/02/21 04:56:39;;;;;;;5.30;2.20;;;5.10;99.90;;;;;;5040868;28;20064;-83
2023/02/21 04:59:06;;;;;;;4.45;2.10;;;5.10;99.90;;;;;;5025611;28;20080;-83
2023/02/21 05:01:33;;;;;;;5.15;1.95;;;5.00;99.90;;;;;;5034802;28;20053;-82
2023/02/21 05:04:00;;;;;;;3.13;1.92;;;5.00;99.90;;;;;;5033870;28;20141;-83
2023/02/21 05:06:28;;;;;;;3.97;1.95;;;5.00;99.90;;;;;;5041382;28;20055;-83
2023/02/21 05:08:55;;;;;;;3.03;1.90;;;5.00;99.90;;;;;;5036147;28;20076;-82
2023/02/21 05:11:22;;;;;;;5.40;2.05;;;5.00;99.90;;;;;;5031384;28;20050;-82
2023/02/21 05:13:49;;;;;;;5.35;1.90;;;4.90;99.90;;;;;;5020194;28;20048;-82
2023/02/21 05:16:18;;;;;;;4.40;2.10;;;4.90;99.90;;;;;;5027453;28;20073;-82
2023/02/21 05:18:47;;;;;;;6.07;2.00;;;4.90;99.90;;;;;;5029940;28;20468;-81
2023/02/21 05:21:14;;;;;;;4.80;2.05;;;4.90;99.90;;;;;;5026024;28;20553;-82
2023/02/21 05:23:54;;;;;;;4.50;2.20;;;4.90;99.90;;;;;;5034581;28;20116;-83
2023/02/21 05:26:34;;;;;;;4.93;2.37;;;4.80;99.90;;;;;;5024490;28;20049;-82
2023/02/21 05:29:02;;;;;;;6.43;2.45;;;4.80;99.90;;;;;;5027348;28;20333;-81
2023/02/21 05:31:28;;;;;;;5.35;2.30;;;4.80;99.90;;;;;;5028228;28;20055;-82
2023/02/21 05:33:56;;;;;;;6.78;2.33;;;4.80;99.90;;;;;;5029317;28;20052;-82
2023/02/21 05:36:24;;;;;;;3.75;2.28;;;4.80;99.90;;;;;;5034935;28;20049;-81
2023/02/21 05:38:54;;;;;;;5.90;1.92;;;4.80;99.90;;;;;;5034889;28;20096;-82
2023/02/21 05:41:21;;;;;;;;;;;4.80;99.90;;;;;;5028232;28;20394;-82
2023/02/21 05:43:48;;;;;;;2.67;2.10;;;4.70;99.90;;;;;;5027409;28;19972;-82
2023/02/21 05:46:30;;;;;;;2.97;1.90;;;4.70;99.90;;;;;;5030558;28;20097;-82
2023/02/21 05:48:58;;;;;;;5.57;2.10;;;4.70;99.90;;;;;;5035100;28;20049;-84
2023/02/21 05:51:26;;;;;;;5.82;2.25;;;4.70;99.90;;;;;;5038512;28;20046;-83
2023/02/21 05:53:53;;;;;;;3.42;1.83;;;4.70;99.90;;;;;;5037546;28;20056;-82
2023/02/21 05:56:20;;;;;;;3.40;2.20;;;4.60;99.90;;;;;;5024418;28;20175;-83
2023/02/21 05:58:48;;;;;;;4.95;2.67;;;4.60;99.90;;;;;;5044577;28;20045;-84
2023/02/21 06:01:15;;;;;;;3.80;2.28;;;4.60;99.90;;;;;;5037984;28;20416;-83
2023/02/21 06:03:42;;;;;;;4.18;2.50;;;4.60;99.90;;;;;;5030126;28;20057;-85
2023/02/21 06:06:09;;;;;;;4.70;2.63;;;4.60;99.90;;;;;;5037275;28;20042;-82
2023/02/21 06:08:47;;;;;;;7.45;2.80;;;4.60;99.90;;;;;;5037917;28;20045;-83
2023/02/21 06:11:20;;;;;;;7.78;2.65;;;4.50;99.90;;;;;;5028757;28;20052;-83
2023/02/21 06:13:49;;;;;;;6.97;2.65;;;4.50;99.90;;;;;;5029753;28;20042;-83
2023/02/21 06:16:16;;;;;;;4.28;2.22;;;4.50;99.90;;;;;;5050206;28;20050;-82
2023/02/21 06:18:43;;;;;;;4.43;2.10;;;4.50;99.90;;;;;;5051107;28;20113;-84
2023/02/21 06:21:09;;;;;;;3.65;1.80;;;4.50;99.90;;;;;;5037343;28;20054;-82
2023/02/21 06:23:36;;;;;;;4.85;2.58;;;4.50;99.90;;;;;;5022818;28;20073;-83
2023/02/21 06:26:03;;;;;;;3.03;2.35;;;4.50;99.90;;;;;;5028511;28;20051;-83
2023/02/21 06:28:30;;;;;;;6.38;2.53;;;4.40;99.90;;;;;;5034895;28;20041;-82
2023/02/21 06:30:58;;;;;;;11.85;4.93;;;4.40;99.90;;;;;;5032948;28;20497;-82
2023/02/21 06:33:24;;;;;;;4.43;3.75;;;4.40;99.90;;;;;;5038322;28;20044;-80
2023/02/21 06:35:51;;;;;;;11.43;4.82;;;4.40;99.90;;;;;;5025525;28;20069;-82
2023/02/21 06:38:18;;;;;;;9.45;3.42;;;4.40;99.90;;;;;;5018070;28;20077;-82
2023/02/21 06:40:45;;;;;;;7.90;3.30;;;4.40;99.90;;;;;;5013515;28;20049;-81
2023/02/21 06:43:11;;;;;;;8.45;3.17;;;4.40;99.90;;;;;;5018324;28;20049;-82
2023/02/21 06:45:38;;;;;;;5.68;3.20;;;4.30;99.90;;;;;;5021857;28;20140;-82
2023/02/21 06:48:06;;;;;;;2.95;2.45;;;4.40;99.90;;;;;;5021055;28;20057;-82
2023/02/21 06:50:33;;;;;;;5.88;2.88;;;4.30;99.90;;;;;;5021176;28;20501;-82
2023/02/21 06:52:59;;;;;;;9.48;3.80;;;4.30;99.90;;;;;;5014457;28;20046;-83
2023/02/21 06:55:26;;;;;;;5.07;2.83;;;4.30;99.90;;;;;;5016234;28;20465;-82
2023/02/21 06:57:53;;;;;;;9.00;3.47;;;4.30;99.90;;;;;;5023316;28;20092;-82
2023/02/21 07:00:20;;;;;;;6.70;2.97;;;4.40;99.90;;;;;;5018607;28;20072;-82
2023/02/21 07:02:46;;;;;;;10.70;3.75;;;4.40;99.90;;;;;;5022764;28;20124;-82
2023/02/21 07:05:14;;;;;;;9.43;3.67;;;4.30;99.90;;;;;;5014189;28;20133;-81
2023/02/21 07:07:42;;;;;;;10.52;3.80;;;4.30;99.90;;;;;;5013271;28;20061;-82
2023/02/21 07:10:09;;;;;;;5.97;3.42;;;4.30;99.90;;;;;;5019947;28;20535;-82
2023/02/21 07:12:36;;;;;;;9.35;2.97;;;4.30;99.90;;;;;;5019942;28;20072;-80
2023/02/21 07:15:03;;;;;;;8.38;2.92;;;4.30;99.90;;;;;;5019922;28;20057;-83
2023/02/21 07:17:29;;;;;;;5.13;3.40;;;4.30;99.90;;;;;;5029513;28;20052;-81
2023/02/21 07:19:56;;;;;;;5.55;3.13;;;4.30;99.90;;;;;;5013847;28;20054;-83
2023/02/21 07:22:24;;;;;;;5.57;2.60;;;4.30;99.90;;;;;;5021118;28;20046;-82
2023/02/21 07:24:52;;;;;;;5.30;2.33;;;4.30;99.90;;;;;;5036908;28;20524;-82
2023/02/21 07:27:20;;;;;;;8.23;2.78;;;4.30;99.90;;;;;;5034525;28;20069;-83
2023/02/21 07:29:51;;;;;;;6.72;3.20;;;4.40;99.90;;;;;;5020452;28;20042;-80
2023/02/21 07:32:18;;;;;;;5.55;3.00;;;4.40;99.90;;;;;;5037798;28;20038;-82
2023/02/21 07:34:45;;;;;;;11.35;3.67;;;4.40;99.90;;;;;;5025552;28;20049;-82
2023/02/21 07:37:12;;;;;;;12.13;6.53;;;4.40;99.90;;;;;;5038020;28;20050;-82
2023/02/21 07:39:39;;;;;;;6.38;3.90;;;4.40;99.90;;;;;;5043497;28;20057;-82
2023/02/21 07:42:06;;;;;;;9.93;4.53;;;4.40;99.90;;;;;;5023733;28;20057;-83
2023/02/21 07:44:33;;;;;;;8.60;4.80;;;4.50;99.90;;;;;;5036917;28;20045;-83
2023/02/21 07:47:00;;;;;;;8.77;4.20;;;4.50;99.90;;;;;;5018757;28;20065;-83
2023/02/21 07:49:27;;;;;;;7.63;3.92;;;4.50;99.90;;;;;;5028365;28;20390;-83
2023/02/21 07:51:54;;;;;;;8.05;3.63;;;4.50;99.90;;;;;;5027840;28;20255;-84
2023/02/21 07:54:22;;;;;;;6.72;3.67;;;4.50;99.90;;;;;;5032837;28;20088;-83
2023/02/21 07:56:49;;;;;;;9.95;4.53;;;4.60;99.90;;;;;;5022648;28;20080;-82
2023/02/21 07:59:15;;;;;;;7.70;3.97;;;4.60;99.90;;;;;;5049343;28;20443;-82
2023/02/21 08:01:42;;;;;;;9.75;4.13;;;4.60;99.90;;;;;;5019125;28;20065;-83
2023/02/21 08:04:09;;;;;;;10.75;3.95;;;4.60;99.90;;;;;;5025859;28;20054;-83
2023/02/21 08:06:35;;;;;;;8.65;3.13;;;4.60;99.90;;;;;;5023711;28;20421;-84
2023/02/21 08:09:03;;;;;;;5.72;3.00;;;4.60;99.90;;;;;;5024798;28;20046;-83
2023/02/21 08:11:30;;;;;;;7.55;3.35;;;4.70;99.90;;;;;;5031122;28;20114;-84
2023/02/21 08:13:56;;;;;;;5.82;2.83;;;4.70;99.90;;;;;;5029872;28;20056;-84
2023/02/21 08:16:23;;;;;;;10.32;3.45;;;4.80;99.90;;;;;;5018003;28;20049;-85
2023/02/21 08:18:50;;;;;;;4.45;2.80;;;4.80;99.90;;;;;;5026470;28;20054;-83
2023/02/21 08:21:17;;;;;;;8.05;3.42;;;4.80;99.90;;;;;;5020344;28;20046;-84
2023/02/21 08:23:43;;;;;;;5.95;3.60;;;4.90;99.90;;;;;;5025718;28;20045;-84
2023/02/21 08:26:10;;;;;;;9.20;5.82;;;4.90;99.90;;;;;;5024286;28;20133;-85
2023/02/21 08:28:37;;;;;;;10.63;7.57;;;5.00;99.90;;;;;;5034753;28;20045;-84
2023/02/21 08:31:04;;;;;;;14.98;6.80;;;5.00;99.90;;;;;;5016813;28;20544;-84
2023/02/21 08:33:30;;;;;;;20.00;7.78;;;5.10;99.90;;;;;;5038870;28;20046;-85
2023/02/21 08:35:57;;;;;;;13.90;8.25;;;5.10;99.90;;;;;;5021564;28;20137;-85
2023/02/21 08:38:24;;;;;;;12.20;8.40;;;5.20;99.90;;;;;;5022256;28;20050;-84
2023/02/21 08:40:52;;;;;;;17.77;9.50;;;5.20;99.90;;;;;;5025576;28;20050;-84
2023/02/21 08:43:18;;;;;;;11.30;7.57;;;5.30;99.90;;;;;;5025925;28;20045;-85
2023/02/21 08:45:45;;;;;;;15.05;7.68;;;5.30;99.90;;;;;;5016038;28;20548;-85
2023/02/21 08:48:12;;;;;;;12.65;6.05;;;5.30;99.90;;;;;;5019806;28;20042;-84
2023/02/21 08:50:39;;;;;;;12.45;6.25;;;5.40;99.90;;;;;;5022915;28;20052;-84
2023/02/21 08:53:05;;;;;;;13.93;5.63;;;5.40;99.90;;;;;;5025714;28;20061;-84
2023/02/21 08:55:32;;;;;;;10.13;5.80;;;5.50;99.90;;;;;;5025533;28;20050;-85
2023/02/21 08:57:59;;;;;;;9.95;5.18;;;5.50;99.90;;;;;;5018624;28;20056;-85
2023/02/21 09:00:29;;;;;;;8.23;5.90;;;5.50;99.90;;;;;;5016523;28;20592;-84
2023/02/21 09:02:57;;;;;;;10.68;5.82;;;5.60;99.90;;;;;;5021687;28;20050;-84
2023/02/21 09:05:27;;;;;;;12.23;4.53;;;5.70;99.90;;;;;;5018991;28;20046;-84
2023/02/21 09:07:57;;;;;;;10.40;5.07;;;5.70;99.90;;;;;;5028162;28;20129;-83
2023/02/21 09:10:27;;;;;;;9.90;4.55;;;5.70;99.90;;;;;;5017974;28;20128;-84
2023/02/21 09:12:54;;;;;;;7.65;4.40;;;5.80;99.90;;;;;;5012797;28;20042;-85
2023/02/21 09:15:20;;;;;;;8.85;4.30;;;5.90;99.90;;;;;;5017029;28;20042;-84
2023/02/21 09:17:49;;;;;;;7.07;4.75;;;5.90;99.90;;;;;;5037271;28;20061;-84
2023/02/21 09:20:19;;;;;;;7.55;3.92;;;6.00;99.90;;;;;;5016541;28;20061;-85
2023/02/21 09:22:46;;;;;;;5.93;3.83;;;6.00;99.90;;;;;;5016604;28;20056;-84
2023/02/21 09:25:16;;;;;;;6.47;4.43;;;6.10;99.90;;;;;;5022089;28;20556;-82
2023/02/21 09:27:42;;;;;;;13.48;4.57;;;6.10;99.90;;;;;;5016420;28;20086;-83
2023/02/21 09:30:20;;;;;;;9.32;3.50;;;6.20;99.90;;;;;;5033128;28;20042;-84
2023/02/21 09:32:48;;;;;;;9.65;4.05;;;6.20;99.90;;;;;;5026118;28;20068;-84
2023/02/21 09:35:15;;;;;;;10.82;3.78;;;6.30;99.90;;;;;;5025834;28;20046;-85
2023/02/21 09:37:44;;;;;;;6.80;3.85;;;6.30;99.90;;;;;;5025523;28;20093;-84
2023/02/21 09:40:26;;;;;;;10.93;4.13;;;6.40;99.90;;;;;;5011710;28;20140;-84
2023/02/21 09:42:54;;;;;;;6.32;3.92;;;6.50;99.90;;;;;;5018439;28;20113;-84
2023/02/21 09:45:23;;;;;;;8.98;4.07;;;6.60;99.90;;;;;;5021852;28;20045;-84
2023/02/21 09:47:54;;;;;;;10.13;3.63;;;6.60;99.90;;;;;;5019893;28;20124;-85
2023/02/21 09:50:29;;;;;;;8.15;3.70;;;6.70;99.90;;;;;;5025425;28;20042;-85
2023/02/21 09:52:57;;;;;;;11.40;3.70;;;6.80;99.90;;;;;;5012768;28;20041;-84
2023/02/21 09:55:32;;;;;;;9.10;3.88;;;6.80;99.90;;;;;;5016911;28;20449;-83
2023/02/21 09:58:00;;;;;;;7.82;3.83;;;6.80;99.90;;;;;;5022125;28;20217;-84
2023/02/21 10:00:37;;;;;;;10.35;4.45;;;6.90;99.90;;;;;;5026578;28;20042;-84
2023/02/21 10:03:31;;;;;;;8.95;3.95;;;7.00;99.90;;;;;;5020433;28;20050;-84
2023/02/21 10:06:01;;;;;;;7.50;3.75;;;7.00;99.90;;;;;;5014772;28;20108;-84
2023/02/21 10:08:48;;;;;;;7.07;4.03;;;7.10;99.90;;;;;;5011420;28;20050;-84
2023/02/21 10:11:33;;;;;;;10.23;3.40;;;7.10;99.90;;;;;;5021251;28;20664;-85
2023/02/21 10:14:22;;;;;;;8.13;2.97;;;7.20;99.90;;;;;;5022321;28;20048;-84
2023/02/21 10:17:09;;;;;;;8.77;3.35;;;7.20;99.90;;;;;;5019588;28;20042;-85
2023/02/21 10:19:41;;;;;;;4.35;2.88;;;7.20;99.90;;;;;;5029051;28;20132;-84
2023/02/21 10:22:18;;;;;;;6.68;3.78;;;7.30;99.90;;;;;;5018973;28;20129;-84
2023/02/21 10:24:45;;;;;;;6.55;3.50;;;7.30;99.90;;;;;;5015958;28;20110;-85
2023/02/21 10:27:18;;;;;;;7.50;3.42;;;7.40;99.90;;;;;;5023835;28;20049;-85
2023/02/21 10:30:09;;;;;;;9.40;3.88;;;7.50;99.90;;;;;;5028674;28;20053;-84
2023/02/21 10:32:37;;;;;;;6.43;3.40;;;7.60;99.90;;;;;;5026790;28;20060;-85
2023/02/21 10:35:04;;;;;;;7.25;3.50;;;7.70;99.90;;;;;;5045316;28;20646;-85
2023/02/21 10:37:50;;;;;;;9.13;3.85;;;7.70;99.90;;;;;;5019063;28;20125;-85
2023/02/21 10:40:46;;;;;;;13.60;4.57;;;7.80;99.90;;;;;;5019109;28;20046;-85
2023/02/21 10:43:21;;;;;;;7.85;3.88;;;7.80;99.90;;;;;;5029910;28;20058;-84
2023/02/21 10:46:07;;;;;;;10.65;4.00;;;7.90;99.90;;;;;;5008276;28;20084;-85
2023/02/21 10:48:38;;;;;;;8.07;3.78;;;8.00;99.90;;;;;;5022977;28;20050;-86
2023/02/21 10:51:16;;;;;;;7.40;3.78;;;8.00;99.90;;;;;;5017024;28;20088;-85
2023/02/21 10:53:46;;;;;;;7.27;3.50;;;8.00;99.90;;;;;;5015705;28;20629;-85
2023/02/21 10:56:17;;;;;;;8.10;3.95;;;8.10;99.90;;;;;;5010747;28;20046;-85
2023/02/21 10:58:46;;;;;;;10.60;4.07;;;8.20;99.90;;;;;;5024947;28;20091;-85
2023/02/21 11:01:21;;;;;;;7.75;3.47;;;8.30;99.90;;;;;;5013462;28;20046;-86
2023/02/21 11:03:51;;;;;;;7.72;3.53;;;8.40;99.90;;;;;;5023410;28;20056;-86
2023/02/21 11:06:29;;;;;;;8.85;3.92;;;8.40;99.90;;;;;;5014032;28;20091;-83
2023/02/21 11:08:56;;;;;;;9.57;3.95;;;8.50;99.90;;;;;;5014475;28;20051;-84
2023/02/21 11:11:37;;;;;;;9.43;4.50;;;8.50;99.90;;;;;;5015865;28;20049;-82
2023/02/21 11:14:16;;;;;;;7.78;3.97;;;8.60;99.90;;;;;;5019838;28;20042;-83
2023/02/21 11:16:42;;;;;;;9.50;3.92;;;8.60;99.90;;;;;;5028038;28;20077;-83
2023/02/21 11:19:13;;;;;;;7.57;3.70;;;8.70;99.90;;;;;;5020430;28;20061;-83
2023/02/21 11:21:44;;;;;;;7.53;4.28;;;8.70;99.90;;;;;;5007803;28;20056;-83
2023/02/21 11:24:11;;;;;;;5.25;3.38;;;8.90;99.90;;;;;;5017326;28;20054;-83
2023/02/21 11:26:47;;;;;;;10.38;3.92;;;8.90;99.90;;;;;;5010725;28;20053;-83
2023/02/21 11:29:20;;;;;;;9.50;3.53;;;8.90;99.90;;;;;;5019587;28;20085;-82
2023/02/21 11:31:46;;;;;;;5.93;3.63;;;9.10;99.90;;;;;;5022094;28;20081;-85
2023/02/21 11:34:15;;;;;;;5.18;3.42;;;9.10;99.90;;;;;;5018355;28;20042;-85
2023/02/21 11:36:45;;;;;;;12.68;3.97;;;9.20;99.90;;;;;;5020833;28;20050;-84
2023/02/21 11:39:33;;;;;;;8.95;4.22;;;9.20;99.90;;;;;;5016841;28;20398;-84
2023/02/21 11:42:03;;;;;;;11.00;3.88;;;9.30;99.90;;;;;;5025335;28;20161;-85
2023/02/21 11:44:34;;;;;;;8.75;4.22;;;9.40;99.90;;;;;;5022281;28;20076;-85
2023/02/21 11:47:03;;;;;;;;;;;9.40;99.90;;;;;;5015691;28;20045;-85
2023/02/21 11:49:51;;;;;;;6.10;3.63;;;9.50;99.90;;;;;;5038596;28;20390;-85
2023/02/21 11:52:44;;;;;;;6.80;4.30;;;9.50;99.90;;;;;;5020371;28;20109;-84
2023/02/21 11:55:20;;;;;;;12.65;4.03;;;9.60;99.90;;;;;;5022075;28;20042;-85
2023/02/21 11:58:15;;;;;;;8.00;3.95;;;9.70;99.90;;;;;;5022437;28;20060;-83
2023/02/21 12:01:01;;;;;;;8.48;4.30;;;9.80;99.90;;;;;;5020222;28;20054;-85
2023/02/21 12:03:55;;;;;;;5.53;3.38;;;9.80;99.90;;;;;;5019707;28;20049;-82
2023/02/21 12:06:28;;;;;;;13.15;3.60;;;9.90;99.90;;;;;;5019617;28;20050;-86
2023/02/21 12:09:01;;;;;;;7.07;3.95;;;10.00;99.90;;;;;;5035049;28;20081;-85
2023/02/21 12:12:07;;;;;;;12.70;4.18;;;10.00;99.90;;;;;;5041276;28;20037;-85
2023/02/21 12:14:48;;;;;;;9.70;3.97;;;10.10;99.90;;;;;;4999297;28;20054;-85
2023/02/21 12:17:36;;;;;;;6.63;3.60;;;10.10;99.90;;;;;;5015536;28;20050;-85
2023/02/21 12:20:33;;;;;;;13.10;3.92;;;10.20;99.90;;;;;;5029287;28;20068;-85
2023/02/21 12:23:06;;;;;;;7.50;3.65;;;10.30;99.90;;;;;;5036097;28;20049;-85
2023/02/21 12:25:57;;;;;;;8.55;3.40;;;10.40;99.90;;;;;;5028711;28;20062;-85
2023/02/21 12:28:43;;;;;;;6.68;3.67;;;10.40;99.90;;;;;;5026682;28;20117;-84
2023/02/21 12:31:15;;;;;;;6.80;3.00;;;10.40;99.90;;;;;;5015907;28;20058;-85
2023/02/21 12:34:30;;;;;;;6.13;3.05;;;10.50;99.90;;;;;;5025511;28;20080;-85
2023/02/21 12:37:04;;;;;;;6.13;2.72;;;10.60;99.90;;;;;;5020554;28;20138;-85
2023/02/21 12:39:34;;;;;;;8.60;3.33;;;10.60;99.90;;;;;;5024023;28;20074;-85
2023/02/21 12:42:12;;;;;;;6.43;3.70;;;10.60;99.90;;;;;;5022627;28;20045;-85
2023/02/21 12:45:16;;;;;;;6.97;3.03;;;10.60;99.90;;;;;;5012416;28;20050;-85
2023/02/21 12:47:49;;;;;;;5.65;2.63;;;10.70;99.90;;;;;;5023010;28;20060;-85
2023/02/21 12:50:28;;;;;;;6.32;2.50;;;10.70;99.90;;;;;;5040771;28;20053;-85
2023/02/21 12:53:06;;;;;;;4.38;2.80;;;10.70;99.90;;;;;;5045037;28;20057;-86
2023/02/21 12:55:44;;;;;;;4.10;2.28;;;10.80;99.90;;;;;;5035720;28;20050;-85
2023/02/21 12:58:17;;;;;;;9.40;4.00;;;10.90;99.90;;;;;;5035237;28;20098;-86
2023/02/21 13:01:16;;;;;;;5.20;2.35;;;11.10;99.90;;;;;;5032118;28;20480;-83
2023/02/21 13:04:12;;;;;;;7.30;2.85;;;11.10;99.90;;;;;;5023664;28;20057;-84
2023/02/21 13:07:24;;;;;;;7.00;2.55;;;11.10;99.90;;;;;;5022490;28;20136;-85
2023/02/21 13:10:02;;;;;;;11.85;2.53;;;11.10;99.90;;;;;;5016942;28;20046;-85
2023/02/21 13:12:46;;;;;;;5.30;2.38;;;11.20;99.90;;;;;;5017549;28;20064;-84
2023/02/21 13:15:22;;;;;;;3.17;1.85;;;11.20;99.90;;;;;;5034107;28;20054;-84
2023/02/21 13:18:15;;;;;;;6.10;2.30;;;11.20;99.90;;;;;;5040413;28;20053;-85
2023/02/21 13:20:46;;;;;;;5.05;1.98;;;11.20;99.90;;;;;;5039691;28;20112;-86
2023/02/21 13:27:07;;;;;;;8.27;2.38;;;11.30;99.90;;;;;;5019080;28;20486;-85
2023/02/21 13:29:37;;;;;;;7.75;2.65;;;11.40;99.90;;;;;;5017131;28;20050;-83
2023/02/21 13:32:20;;;;;;;5.40;2.00;;;11.50;99.90;;;;;;5022922;28;20049;-83
2023/02/21 13:34:53;;;;;;;5.95;2.47;;;11.50;99.90;;;;;;5029227;28;20057;-85
2023/02/21 13:37:26;;;;;;;3.90;2.22;;;11.50;99.90;;;;;;5032723;28;20056;-84
2023/02/21 13:40:06;;;;;;;3.42;2.08;;;11.50;99.90;;;;;;5047867;28;20057;-85
2023/02/21 13:42:37;;;;;;;5.25;2.17;;;11.50;99.90;;;;;;5024988;28;20050;-84
2023/02/21 13:45:20;;;;;;;9.02;2.10;;;11.70;99.90;;;;;;5029374;28;20069;-84
2023/02/21 13:47:51;;;;;;;8.05;2.10;;;11.80;99.90;;;;;;5044824;28;20485;-84
2023/02/21 13:50:35;;;;;;;5.60;2.10;;;11.80;99.90;;;;;;5020159;28;20055;-83
2023/02/21 13:53:25;;;;;;;2.92;1.98;;;11.80;99.90;;;;;;5022557;28;20503;-84
2023/02/21 13:55:58;;;;;;;5.68;1.70;;;11.80;99.90;;;;;;5020779;28;20115;-84
2023/02/21 13:58:44;;;;;;;2.63;1.70;;;11.80;99.90;;;;;;5023273;28;20133;-84
2023/02/21 14:01:14;;;;;;;3.67;1.42;;;11.80;99.90;;;;;;5038272;28;20046;-84
2023/02/21 14:03:41;;;;;;;3.15;1.90;;;11.90;99.90;;;;;;5045466;28;20420;-83
2023/02/21 14:06:07;;;;;;;4.25;2.13;;;11.90;99.90;;;;;;5036319;28;20073;-83
2023/02/21 14:08:42;;;;;;;6.60;1.58;;;11.90;99.90;;;;;;5019723;28;20521;-84
2023/02/21 14:11:22;;;;;;;4.05;1.70;;;11.90;99.90;;;;;;5024432;28;20052;-84
2023/02/21 14:13:55;;;;;;;3.47;1.70;;;12.00;99.90;;;;;;5028231;28;20074;-84
2023/02/21 14:16:31;;;;;;;6.30;1.73;;;12.00;99.90;;;;;;5021625;28;20046;-84
2023/02/21 14:19:08;;;;;;;7.63;1.92;;;12.00;99.90;;;;;;5035878;28;20053;-84
2023/02/21 14:21:40;;;;;;;6.00;2.30;;;12.00;99.90;;;;;;5029759;28;20513;-83
2023/02/21 14:24:10;;;;;;;6.53;1.88;;;12.10;99.90;;;;;;5020776;28;20050;-85
2023/02/21 14:26:49;;;;;;;11.20;2.55;;;12.10;99.90;;;;;;5020019;28;20057;-83
2023/02/21 14:29:28;;;;;;;6.95;2.28;;;12.20;99.90;;;;;;5019954;28;20521;-83
2023/02/21 14:32:00;;;;;;;10.90;3.03;;;12.20;99.90;;;;;;5032398;28;20479;-83
2023/02/21 14:34:53;;;;;;;7.18;2.75;;;12.20;99.90;;;;;;5021351;28;20096;-84
2023/02/21 14:37:35;;;;;;;4.30;2.28;;;12.20;99.90;;;;;;5015443;28;20053;-83
2023/02/21 14:40:08;;;;;;;5.22;2.10;;;12.30;99.90;;;;;;5037072;28;20049;-83
2023/02/21 14:43:25;;;;;;;6.90;2.25;;;12.30;99.90;;;;;;5024957;28;20133;-86
2023/02/21 14:46:16;;;;;;;5.25;1.98;;;12.30;99.90;;;;;;4989846;28;20046;-85
2023/02/21 14:49:11;;;;;;;3.83;2.22;;;12.30;99.90;;;;;;5024719;28;20064;-83
2023/02/21 14:52:17;;;;;;;4.97;1.95;;;12.40;99.90;;;;;;5020894;28;20128;-83
2023/02/21 14:55:16;;;;;;;4.15;2.35;;;12.40;99.90;;;;;;5018891;28;20038;-83
2023/02/21 14:58:00;;;;;;;12.38;2.50;;;12.40;99.90;;;;;;5018298;28;20145;-84
2023/02/21 15:00:53;;;;;;;13.27;4.93;;;12.50;99.90;;;;;;5025713;28;20049;-83
2023/02/21 15:03:28;;;;;;;6.65;3.10;;;12.50;99.90;;;;;;5024776;28;20121;-83
2023/02/21 15:06:06;;;;;;;7.30;3.03;;;12.50;99.90;;;;;;5018172;28;20109;-83
2023/02/21 15:08:45;;;;;;;6.32;2.88;;;12.50;99.90;;;;;;5024283;28;20053;-82
2023/02/21 15:11:28;;;;;;;9.00;3.28;;;12.50;99.90;;;;;;5022908;28;20464;-84
2023/02/21 15:14:22;;;;;;;5.35;2.90;;;12.50;99.90;;;;;;5025422;28;20051;-83
2023/02/21 15:17:14;;;;;;;8.77;3.83;;;12.60;99.90;;;;;;5025859;28;20058;-83
2023/02/21 15:19:41;;;;;;;11.73;2.92;;;12.60;99.90;;;;;;5011071;28;20048;-83
2023/02/21 15:22:15;;;;;;;5.72;3.33;;;12.60;99.90;;;;;;5023557;28;20037;-83
2023/02/21 15:24:59;;;;;;;11.73;3.42;;;12.60;99.90;;;;;;5018717;28;20049;-83
2023/02/21 15:27:25;;;;;;;8.57;2.97;;;12.70;99.90;;;;;;5023268;28;20048;-84
2023/02/21 15:30:17;;;;;;;7.75;3.08;;;12.70;99.90;;;;;;5026293;28;20070;-83
2023/02/21 15:32:55;;;;;;;8.57;3.00;;;12.70;99.90;;;;;;5016219;28;20081;-84
2023/02/21 15:35:28;;;;;;;7.25;3.33;;;12.70;99.90;;;;;;5012429;28;20531;-83
2023/02/21 15:37:57;;;;;;;5.35;2.83;;;12.70;99.90;;;;;;5026684;28;20060;-83
2023/02/21 15:40:25;;;;;;;6.38;3.38;;;12.70;99.90;;;;;;5044112;28;20060;-83
2023/02/21 15:42:53;;;;;;;6.90;3.55;;;12.80;99.90;;;;;;5021852;28;20662;-83
2023/02/21 15:45:32;;;;;;;7.50;3.15;;;12.80;99.90;;;;;;5043781;28;20046;-83